createdAt,value
2017-09-15T00:00:38.845Z,0
2017-09-15T00:01:48.967Z,0
2017-09-15T00:02:59.422Z,0
2017-09-15T00:04:09.221Z,0
2017-09-15T00:05:19.639Z,0
2017-09-15T00:06:30.095Z,0
2017-09-15T00:07:40.504Z,0
2017-09-15T00:08:50.957Z,0
2017-09-15T00:10:01.420Z,0
2017-09-15T00:11:11.433Z,0
2017-09-15T00:12:21.858Z,0
2017-09-15T00:13:32.301Z,0
2017-09-15T00:14:42.725Z,0
2017-09-15T00:15:53.150Z,0
2017-09-15T00:17:04.043Z,0
2017-09-15T00:18:14.497Z,0
2017-09-15T00:19:24.952Z,0
2017-09-15T00:20:36.367Z,0
2017-09-15T00:21:46.790Z,0
2017-09-15T00:22:57.147Z,0
2017-09-15T00:24:06.816Z,0
2017-09-15T00:25:17.240Z,0
2017-09-15T00:26:27.820Z,0
2017-09-15T00:27:38.305Z,0
2017-09-15T00:28:48.980Z,0
2017-09-15T00:29:59.863Z,0
2017-09-15T00:31:10.326Z,0
2017-09-15T00:32:20.753Z,0
2017-09-15T00:33:31.175Z,0
2017-09-15T00:34:41.865Z,0
2017-09-15T00:35:52.306Z,0
2017-09-15T00:37:02.747Z,0
2017-09-15T00:38:12.861Z,0
2017-09-15T00:39:23.284Z,0
2017-09-15T00:40:33.954Z,0
2017-09-15T00:41:44.443Z,0
2017-09-15T00:42:54.862Z,0
2017-09-15T00:44:05.005Z,0
2017-09-15T00:45:15.447Z,0
2017-09-15T00:46:26.150Z,0
2017-09-15T00:47:36.301Z,0
2017-09-15T00:48:46.732Z,0
2017-09-15T00:49:56.904Z,0
2017-09-15T00:51:07.331Z,0
2017-09-15T00:52:17.691Z,0
2017-09-15T00:53:28.136Z,0
2017-09-15T00:54:38.573Z,0
2017-09-15T00:55:49.073Z,0
2017-09-15T00:56:59.522Z,0
2017-09-15T00:58:10.189Z,0
2017-09-15T00:59:20.621Z,0
2017-09-15T01:00:31.122Z,0
2017-09-15T01:01:41.252Z,0
2017-09-15T01:02:51.666Z,0
2017-09-15T01:04:01.898Z,0
2017-09-15T01:05:12.335Z,0
2017-09-15T01:06:22.787Z,0
2017-09-15T01:07:33.246Z,0
2017-09-15T01:08:43.905Z,0
2017-09-15T01:09:54.576Z,0
2017-09-15T01:11:05.015Z,0
2017-09-15T01:12:15.470Z,0
2017-09-15T01:13:25.913Z,0
2017-09-15T01:14:36.700Z,0
2017-09-15T01:15:47.456Z,0
2017-09-15T01:16:58.033Z,0
2017-09-15T01:18:08.492Z,0
2017-09-15T01:19:18.942Z,0
2017-09-15T01:20:29.431Z,0
2017-09-15T01:21:40.165Z,0
2017-09-15T01:22:50.608Z,0
2017-09-15T01:24:01.081Z,0
2017-09-15T01:25:11.553Z,0
2017-09-15T01:26:22.002Z,0
2017-09-15T01:27:32.676Z,0
2017-09-15T01:28:43.125Z,0
2017-09-15T01:29:53.555Z,0
2017-09-15T01:31:04.079Z,0
2017-09-15T01:32:14.529Z,0
2017-09-15T01:33:24.914Z,0
2017-09-15T01:34:35.395Z,0
2017-09-15T01:35:45.870Z,0
2017-09-15T01:36:56.299Z,0
2017-09-15T01:38:06.488Z,0
2017-09-15T01:39:17.192Z,0
2017-09-15T01:40:27.640Z,0
2017-09-15T01:41:38.122Z,0
2017-09-15T01:42:48.548Z,0
2017-09-15T01:43:59.008Z,0
2017-09-15T01:45:09.716Z,0
2017-09-15T01:46:20.131Z,0
2017-09-15T01:47:30.618Z,0
2017-09-15T01:48:41.037Z,0
2017-09-15T01:49:51.485Z,0
2017-09-15T01:51:02.486Z,0
2017-09-15T01:52:12.905Z,0
2017-09-15T01:53:23.385Z,0
2017-09-15T01:54:33.909Z,0
2017-09-15T01:55:44.351Z,0
2017-09-15T01:56:55.075Z,0
2017-09-15T01:58:05.697Z,0
2017-09-15T01:59:16.143Z,0
2017-09-15T02:00:26.587Z,0
2017-09-15T02:01:36.718Z,0
2017-09-15T02:02:47.428Z,0
2017-09-15T02:03:57.894Z,0
2017-09-15T02:05:08.345Z,0
2017-09-15T02:06:18.795Z,0
2017-09-15T02:07:29.319Z,0
2017-09-15T02:08:39.700Z,0
2017-09-15T02:09:50.201Z,0
2017-09-15T02:11:00.631Z,0
2017-09-15T02:12:10.732Z,0
2017-09-15T02:13:21.160Z,0
2017-09-15T02:14:31.912Z,0
2017-09-15T02:15:42.019Z,0
2017-09-15T02:16:52.460Z,0
2017-09-15T02:18:02.954Z,0
2017-09-15T02:19:13.390Z,0
2017-09-15T02:20:24.108Z,0
2017-09-15T02:21:34.578Z,0
2017-09-15T02:22:44.990Z,0
2017-09-15T02:23:55.450Z,0
2017-09-15T02:25:06.008Z,0
2017-09-15T02:26:16.389Z,0
2017-09-15T02:27:26.436Z,0
2017-09-15T02:28:36.577Z,0
2017-09-15T02:29:46.369Z,0
2017-09-15T02:30:56.817Z,0
2017-09-15T02:32:07.489Z,0
2017-09-15T02:33:17.952Z,0
2017-09-15T02:34:28.404Z,0
2017-09-15T02:35:38.826Z,0
2017-09-15T02:36:49.318Z,0
2017-09-15T02:38:00.007Z,0
2017-09-15T02:39:10.516Z,0
2017-09-15T02:40:21.017Z,0
2017-09-15T02:41:31.603Z,0
2017-09-15T02:42:42.026Z,0
2017-09-15T02:43:52.715Z,0
2017-09-15T02:45:03.163Z,0
2017-09-15T02:46:13.292Z,0
2017-09-15T02:47:23.713Z,0
2017-09-15T02:48:33.861Z,0
2017-09-15T02:49:44.834Z,0
2017-09-15T02:50:55.261Z,0
2017-09-15T02:52:05.693Z,0
2017-09-15T02:53:16.129Z,0
2017-09-15T02:54:26.749Z,0
2017-09-15T02:55:37.422Z,0
2017-09-15T02:56:48.003Z,0
2017-09-15T02:57:58.498Z,0
2017-09-15T02:59:09.128Z,0
2017-09-15T03:00:19.696Z,0
2017-09-15T03:01:30.315Z,0
2017-09-15T03:02:40.743Z,0
2017-09-15T03:03:51.198Z,0
2017-09-15T03:05:01.333Z,0
2017-09-15T03:06:11.902Z,0
2017-09-15T03:07:22.672Z,0
2017-09-15T03:08:33.180Z,0
2017-09-15T03:09:43.664Z,0
2017-09-15T03:10:54.108Z,0
2017-09-15T03:12:04.793Z,0
2017-09-15T03:13:15.493Z,0
2017-09-15T03:14:26.082Z,0
2017-09-15T03:15:36.745Z,0
2017-09-15T03:16:47.154Z,0
2017-09-15T03:17:57.577Z,0
2017-09-15T03:19:08.466Z,0
2017-09-15T03:20:19.147Z,0
2017-09-15T03:21:29.565Z,0
2017-09-15T03:22:40.022Z,0
2017-09-15T03:23:50.479Z,0
2017-09-15T03:25:01.169Z,0
2017-09-15T03:26:11.645Z,0
2017-09-15T03:27:22.074Z,0
2017-09-15T03:28:32.514Z,0
2017-09-15T03:29:43.001Z,0
2017-09-15T03:30:53.697Z,0
2017-09-15T03:32:04.270Z,0
2017-09-15T03:33:14.487Z,0
2017-09-15T03:34:24.476Z,0
2017-09-15T03:35:35.900Z,0
2017-09-15T03:36:46.606Z,0
2017-09-15T03:37:56.723Z,0
2017-09-15T03:39:07.150Z,0
2017-09-15T03:40:17.582Z,0
2017-09-15T03:41:28.039Z,0
2017-09-15T03:42:38.766Z,0
2017-09-15T03:43:49.192Z,0
2017-09-15T03:44:59.749Z,0
2017-09-15T03:46:10.370Z,0
2017-09-15T03:47:20.810Z,0
2017-09-15T03:48:32.459Z,0
2017-09-15T03:49:42.958Z,0
2017-09-15T03:50:53.379Z,0
2017-09-15T03:52:03.836Z,0
2017-09-15T03:53:14.283Z,0
2017-09-15T03:54:25.180Z,0
2017-09-15T03:55:35.785Z,0
2017-09-15T03:56:45.936Z,0
2017-09-15T03:57:56.475Z,0
2017-09-15T03:59:06.920Z,0
2017-09-15T04:00:17.327Z,0
2017-09-15T04:01:27.479Z,0
2017-09-15T04:02:37.643Z,0
2017-09-15T04:03:48.084Z,0
2017-09-15T04:04:58.220Z,0
2017-09-15T04:06:09.003Z,0
2017-09-15T04:07:19.476Z,0
2017-09-15T04:08:29.937Z,0
2017-09-15T04:09:40.382Z,0
2017-09-15T04:10:50.543Z,0
2017-09-15T04:12:01.226Z,0
2017-09-15T04:13:11.646Z,0
2017-09-15T04:14:21.772Z,0
2017-09-15T04:15:32.240Z,0
2017-09-15T04:16:42.961Z,4
2017-09-15T04:17:53.312Z,0
2017-09-15T04:19:03.758Z,0
2017-09-15T04:20:13.906Z,4
2017-09-15T04:21:24.329Z,4
2017-09-15T04:22:34.766Z,8
2017-09-15T04:23:45.508Z,8
2017-09-15T04:24:55.952Z,8
2017-09-15T04:26:06.434Z,8
2017-09-15T04:27:16.940Z,12
2017-09-15T04:28:28.051Z,16
2017-09-15T04:29:38.438Z,16
2017-09-15T04:30:48.867Z,20
2017-09-15T04:31:58.987Z,24
2017-09-15T04:33:09.398Z,28
2017-09-15T04:34:19.936Z,36
2017-09-15T04:35:30.615Z,44
2017-09-15T04:36:41.045Z,52
2017-09-15T04:37:51.499Z,60
2017-09-15T04:39:01.638Z,72
2017-09-15T04:40:12.251Z,84
2017-09-15T04:41:22.945Z,96
2017-09-15T04:42:33.394Z,112
2017-09-15T04:43:43.924Z,128
2017-09-15T04:44:54.605Z,144
2017-09-15T04:46:04.814Z,164
2017-09-15T04:47:15.508Z,184
2017-09-15T04:48:25.690Z,208
2017-09-15T04:49:36.109Z,232
2017-09-15T04:50:46.535Z,256
2017-09-15T04:51:56.993Z,284
2017-09-15T04:53:07.364Z,312
2017-09-15T04:54:17.813Z,344
2017-09-15T04:55:28.251Z,376
2017-09-15T04:56:38.682Z,408
2017-09-15T04:57:49.196Z,448
2017-09-15T04:58:59.870Z,480
2017-09-15T05:00:10.014Z,516
2017-09-15T05:01:20.429Z,556
2017-09-15T05:02:30.922Z,596
2017-09-15T05:03:41.338Z,636
2017-09-15T05:04:52.261Z,676
2017-09-15T05:06:02.691Z,716
2017-09-15T05:07:12.850Z,756
2017-09-15T05:08:23.022Z,800
2017-09-15T05:09:33.468Z,840
2017-09-15T05:10:44.147Z,880
2017-09-15T05:11:54.590Z,920
2017-09-15T05:13:05.017Z,964
2017-09-15T05:14:15.136Z,1012
2017-09-15T05:15:25.551Z,1060
2017-09-15T05:16:36.228Z,1108
2017-09-15T05:17:46.736Z,1148
2017-09-15T05:18:57.157Z,1184
2017-09-15T05:20:07.769Z,1224
2017-09-15T05:21:18.225Z,1268
2017-09-15T05:22:29.009Z,1312
2017-09-15T05:23:39.475Z,1352
2017-09-15T05:24:49.933Z,1400
2017-09-15T05:26:00.398Z,1448
2017-09-15T05:27:10.944Z,1496
2017-09-15T05:28:21.704Z,1552
2017-09-15T05:29:32.157Z,1604
2017-09-15T05:30:42.687Z,1648
2017-09-15T05:31:53.102Z,1692
2017-09-15T05:33:03.702Z,1740
2017-09-15T05:34:14.996Z,1788
2017-09-15T05:35:25.421Z,1836
2017-09-15T05:36:35.873Z,1888
2017-09-15T05:37:46.333Z,1932
2017-09-15T05:38:56.762Z,1972
2017-09-15T05:40:07.457Z,2016
2017-09-15T05:41:17.895Z,2056
2017-09-15T05:42:28.344Z,2104
2017-09-15T05:43:38.921Z,2156
2017-09-15T05:44:49.359Z,2180
2017-09-15T05:46:00.088Z,2208
2017-09-15T05:47:10.231Z,2244
2017-09-15T05:48:20.390Z,2284
2017-09-15T05:49:30.826Z,2324
2017-09-15T05:50:40.948Z,2360
2017-09-15T05:51:51.642Z,2400
2017-09-15T05:53:01.625Z,2432
2017-09-15T05:54:11.900Z,2456
2017-09-15T05:55:22.334Z,2492
2017-09-15T05:56:32.785Z,2516
2017-09-15T05:57:43.717Z,2548
2017-09-15T05:58:54.170Z,2576
2017-09-15T06:00:04.819Z,2608
2017-09-15T06:01:15.285Z,2632
2017-09-15T06:02:25.639Z,2660
2017-09-15T06:03:36.315Z,2684
2017-09-15T06:04:46.847Z,2716
2017-09-15T06:05:57.324Z,2744
2017-09-15T06:07:07.472Z,2768
2017-09-15T06:08:17.929Z,2796
2017-09-15T06:09:28.338Z,2828
2017-09-15T06:10:39.009Z,2860
2017-09-15T06:11:49.133Z,2888
2017-09-15T06:12:59.574Z,2912
2017-09-15T06:14:10.003Z,2940
2017-09-15T06:15:20.763Z,2968
2017-09-15T06:16:31.176Z,2992
2017-09-15T06:17:41.322Z,3016
2017-09-15T06:18:51.741Z,3040
2017-09-15T06:20:01.875Z,3068
2017-09-15T06:21:12.554Z,3096
2017-09-15T06:22:23.114Z,3124
2017-09-15T06:23:33.588Z,3156
2017-09-15T06:24:44.044Z,3184
2017-09-15T06:25:55.164Z,3216
2017-09-15T06:27:05.870Z,3228
2017-09-15T06:28:16.291Z,3260
2017-09-15T06:29:26.804Z,3284
2017-09-15T06:30:37.228Z,3304
2017-09-15T06:31:47.663Z,3336
2017-09-15T06:32:58.508Z,3360
2017-09-15T06:34:08.962Z,3392
2017-09-15T06:35:19.443Z,3424
2017-09-15T06:36:29.890Z,3448
2017-09-15T06:37:40.007Z,3472
2017-09-15T06:38:50.366Z,3496
2017-09-15T06:40:00.812Z,3536
2017-09-15T06:41:11.228Z,3584
2017-09-15T06:42:21.654Z,3608
2017-09-15T06:43:32.074Z,3632
2017-09-15T06:44:42.776Z,3652
2017-09-15T06:45:53.285Z,3684
2017-09-15T06:47:03.421Z,3700
2017-09-15T06:48:13.867Z,3720
2017-09-15T06:49:24.165Z,3768
2017-09-15T06:50:34.885Z,3820
2017-09-15T06:51:45.351Z,3872
2017-09-15T06:52:55.808Z,3940
2017-09-15T06:54:06.285Z,3988
2017-09-15T06:55:16.721Z,4020
2017-09-15T06:56:27.655Z,4084
2017-09-15T06:57:37.906Z,4124
2017-09-15T06:58:48.377Z,4172
2017-09-15T06:59:58.523Z,4244
2017-09-15T07:01:08.950Z,4320
2017-09-15T07:02:19.002Z,4416
2017-09-15T07:03:29.653Z,4516
2017-09-15T07:04:40.118Z,4612
2017-09-15T07:05:50.543Z,4760
2017-09-15T07:07:00.953Z,4888
2017-09-15T07:08:11.623Z,5016
2017-09-15T07:09:22.073Z,5136
2017-09-15T07:10:32.523Z,5240
2017-09-15T07:11:42.720Z,5328
2017-09-15T07:12:52.850Z,5416
2017-09-15T07:14:03.210Z,5492
2017-09-15T07:15:13.642Z,5556
2017-09-15T07:16:24.069Z,5620
2017-09-15T07:17:34.508Z,5724
2017-09-15T07:18:44.957Z,5844
2017-09-15T07:19:55.656Z,5920
2017-09-15T07:21:05.642Z,6016
2017-09-15T07:22:16.284Z,6132
2017-09-15T07:23:26.804Z,6256
2017-09-15T07:24:37.228Z,6380
2017-09-15T07:25:47.910Z,6696
2017-09-15T07:26:58.064Z,7036
2017-09-15T07:28:09.120Z,7272
2017-09-15T07:29:19.565Z,7096
2017-09-15T07:30:30.029Z,7420
2017-09-15T07:31:40.759Z,7376
2017-09-15T07:32:51.062Z,7240
2017-09-15T07:34:01.505Z,6664
2017-09-15T07:35:11.990Z,7156
2017-09-15T07:36:22.427Z,7284
2017-09-15T07:37:33.125Z,8384
2017-09-15T07:38:43.614Z,6116
2017-09-15T07:39:54.101Z,6488
2017-09-15T07:41:04.247Z,7724
2017-09-15T07:42:14.750Z,7608
2017-09-15T07:43:25.452Z,7576
2017-09-15T07:44:35.462Z,8208
2017-09-15T07:45:45.971Z,10692
2017-09-15T07:46:56.403Z,13476
2017-09-15T07:48:07.050Z,12396
2017-09-15T07:49:17.747Z,10760
2017-09-15T07:50:28.199Z,9580
2017-09-15T07:51:38.630Z,9264
2017-09-15T07:52:49.231Z,7640
2017-09-15T07:53:59.901Z,9096
2017-09-15T07:55:10.268Z,8972
2017-09-15T07:56:20.387Z,8448
2017-09-15T07:57:30.823Z,9304
2017-09-15T07:58:41.508Z,9088
2017-09-15T07:59:51.951Z,9848
2017-09-15T08:01:02.635Z,9588
2017-09-15T08:02:13.407Z,9208
2017-09-15T08:03:23.839Z,11004
2017-09-15T08:04:34.318Z,10840
2017-09-15T08:05:44.757Z,12712
2017-09-15T08:06:55.135Z,19456
2017-09-15T08:08:05.586Z,35136
2017-09-15T08:09:16.016Z,42240
2017-09-15T08:10:26.454Z,46336
2017-09-15T08:11:37.057Z,46528
2017-09-15T08:12:48.036Z,53600
2017-09-15T08:13:58.469Z,55744
2017-09-15T08:15:09.127Z,56192
2017-09-15T08:16:19.667Z,54144
2017-09-15T08:17:29.914Z,31904
2017-09-15T08:18:40.591Z,17728
2017-09-15T08:19:51.037Z,43904
2017-09-15T08:21:01.468Z,18208
2017-09-15T08:22:11.975Z,19648
2017-09-15T08:23:22.398Z,47968
2017-09-15T08:24:33.078Z,42080
2017-09-15T08:25:43.802Z,18720
2017-09-15T08:26:54.279Z,13344
2017-09-15T08:28:04.772Z,33984
2017-09-15T08:29:15.371Z,18048
2017-09-15T08:30:26.246Z,27104
2017-09-15T08:31:36.698Z,14140
2017-09-15T08:32:47.163Z,13356
2017-09-15T08:33:57.633Z,9816
2017-09-15T08:35:08.069Z,11752
2017-09-15T08:36:18.479Z,32416
2017-09-15T08:37:28.931Z,13088
2017-09-15T08:38:39.377Z,14628
2017-09-15T08:39:50.009Z,15056
2017-09-15T08:41:00.636Z,15384
2017-09-15T08:42:12.301Z,71040
2017-09-15T08:43:22.764Z,44320
2017-09-15T08:44:33.202Z,12664
2017-09-15T08:45:43.629Z,14304
2017-09-15T08:46:54.268Z,13180
2017-09-15T08:48:04.964Z,18304
2017-09-15T08:49:15.447Z,60448
2017-09-15T08:50:25.906Z,24736
2017-09-15T08:51:36.639Z,33184
2017-09-15T08:52:47.129Z,48608
2017-09-15T08:53:57.869Z,19040
2017-09-15T08:55:08.314Z,34592
2017-09-15T08:56:18.973Z,32832
2017-09-15T08:57:29.444Z,14220
2017-09-15T08:58:39.704Z,33056
2017-09-15T08:59:50.122Z,10596
2017-09-15T09:01:00.559Z,10624
2017-09-15T09:02:11.017Z,10788
2017-09-15T09:03:21.570Z,9220
2017-09-15T09:04:32.013Z,8308
2017-09-15T09:05:42.693Z,6964
2017-09-15T09:06:53.190Z,5664
2017-09-15T09:08:03.353Z,5772
2017-09-15T09:09:13.781Z,6152
2017-09-15T09:10:24.252Z,6192
2017-09-15T09:11:35.058Z,6644
2017-09-15T09:12:45.504Z,7208
2017-09-15T09:13:55.648Z,8532
2017-09-15T09:15:06.103Z,10236
2017-09-15T09:16:16.141Z,11528
2017-09-15T09:17:26.394Z,36288
2017-09-15T09:18:36.549Z,18560
2017-09-15T09:19:47.069Z,14680
2017-09-15T09:20:57.507Z,15492
2017-09-15T09:22:08.030Z,16768
2017-09-15T09:23:18.937Z,20832
2017-09-15T09:24:29.417Z,16160
2017-09-15T09:25:39.849Z,17568
2017-09-15T09:26:50.295Z,17024
2017-09-15T09:28:01.806Z,59840
2017-09-15T09:29:12.520Z,30528
2017-09-15T09:30:23.011Z,27808
2017-09-15T09:31:33.520Z,44352
2017-09-15T09:32:43.968Z,33792
2017-09-15T09:33:54.100Z,17472
2017-09-15T09:35:04.483Z,33888
2017-09-15T09:36:14.932Z,87424
2017-09-15T09:37:25.408Z,59072
2017-09-15T09:38:35.873Z,90080
2017-09-15T09:39:46.320Z,94240
2017-09-15T09:40:57.041Z,42240
2017-09-15T09:42:07.574Z,87360
2017-09-15T09:43:18.057Z,60320
2017-09-15T09:44:28.521Z,78720
2017-09-15T09:45:38.993Z,50816
2017-09-15T09:46:49.670Z,24672
2017-09-15T09:48:00.171Z,28320
2017-09-15T09:49:10.657Z,12960
2017-09-15T09:50:20.824Z,26464
2017-09-15T09:51:31.299Z,15468
2017-09-15T09:52:42.003Z,88864
2017-09-15T09:53:52.520Z,21312
2017-09-15T09:55:03.021Z,33120
2017-09-15T09:56:13.451Z,79744
2017-09-15T09:57:23.584Z,71744
2017-09-15T09:58:34.000Z,85440
2017-09-15T09:59:44.314Z,96352
2017-09-15T10:00:54.780Z,92640
2017-09-15T10:02:05.312Z,85632
2017-09-15T10:03:15.759Z,59648
2017-09-15T10:04:26.450Z,57056
2017-09-15T10:05:36.918Z,14612
2017-09-15T10:06:47.403Z,12456
2017-09-15T10:07:57.907Z,11176
2017-09-15T10:09:08.612Z,11904
2017-09-15T10:10:19.334Z,12632
2017-09-15T10:11:29.775Z,23456
2017-09-15T10:12:40.219Z,14368
2017-09-15T10:13:50.658Z,12740
2017-09-15T10:15:01.205Z,65632
2017-09-15T10:16:11.968Z,98432
2017-09-15T10:17:22.413Z,28544
2017-09-15T10:18:33.026Z,20320
2017-09-15T10:19:43.589Z,89504
2017-09-15T10:20:54.041Z,99808
2017-09-15T10:22:04.741Z,19328
2017-09-15T10:23:14.887Z,15648
2017-09-15T10:24:25.389Z,14824
2017-09-15T10:25:35.391Z,20704
2017-09-15T10:26:45.841Z,13308
2017-09-15T10:27:56.603Z,14072
2017-09-15T10:29:06.782Z,83904
2017-09-15T10:30:17.242Z,91584
2017-09-15T10:31:27.708Z,25632
2017-09-15T10:32:38.209Z,21600
2017-09-15T10:33:48.909Z,14404
2017-09-15T10:34:59.384Z,12084
2017-09-15T10:36:09.823Z,16864
2017-09-15T10:37:20.339Z,23648
2017-09-15T10:38:30.851Z,93664
2017-09-15T10:39:41.270Z,22400
2017-09-15T10:40:51.714Z,80704
2017-09-15T10:42:01.928Z,72096
2017-09-15T10:43:12.588Z,51424
2017-09-15T10:44:23.066Z,101664
2017-09-15T10:45:33.863Z,97344
2017-09-15T10:46:44.362Z,67808
2017-09-15T10:47:54.805Z,87296
2017-09-15T10:49:05.371Z,51776
2017-09-15T10:50:15.539Z,78816
2017-09-15T10:51:26.266Z,53984
2017-09-15T10:52:36.708Z,91296
2017-09-15T10:53:47.194Z,65888
2017-09-15T10:54:57.639Z,31776
2017-09-15T10:56:08.115Z,60672
2017-09-15T10:57:18.809Z,30144
2017-09-15T10:58:29.324Z,105664
2017-09-15T10:59:39.838Z,26624
2017-09-15T11:00:50.353Z,24544
2017-09-15T11:02:00.867Z,85376
2017-09-15T11:03:11.559Z,79808
2017-09-15T11:04:22.061Z,14244
2017-09-15T11:05:32.607Z,12176
2017-09-15T11:06:43.737Z,18560
2017-09-15T11:07:54.218Z,14156
2017-09-15T11:09:04.952Z,12264
2017-09-15T11:10:15.444Z,10872
2017-09-15T11:11:26.012Z,12876
2017-09-15T11:12:36.024Z,13308
2017-09-15T11:13:46.152Z,13076
2017-09-15T11:14:56.896Z,10900
2017-09-15T11:16:07.344Z,9576
2017-09-15T11:17:17.781Z,8880
2017-09-15T11:18:28.266Z,8180
2017-09-15T11:19:39.688Z,8516
2017-09-15T11:20:50.390Z,9416
2017-09-15T11:22:00.689Z,10772
2017-09-15T11:23:11.280Z,13532
2017-09-15T11:24:21.408Z,17728
2017-09-15T11:25:31.287Z,24256
2017-09-15T11:26:41.665Z,87040
2017-09-15T11:27:51.801Z,83264
2017-09-15T11:29:02.424Z,23072
2017-09-15T11:30:12.440Z,18560
2017-09-15T11:31:23.122Z,14408
2017-09-15T11:32:33.545Z,11080
2017-09-15T11:33:44.060Z,9816
2017-09-15T11:34:54.505Z,9520
2017-09-15T11:36:04.718Z,10044
2017-09-15T11:37:15.214Z,10644
2017-09-15T11:38:25.991Z,11072
2017-09-15T11:39:36.461Z,13376
2017-09-15T11:40:46.937Z,89600
2017-09-15T11:41:57.574Z,92928
2017-09-15T11:43:07.766Z,100128
2017-09-15T11:44:19.465Z,90688
2017-09-15T11:45:29.897Z,76256
2017-09-15T11:46:40.361Z,71360
2017-09-15T11:47:50.794Z,72288
2017-09-15T11:49:00.822Z,14668
2017-09-15T11:50:11.646Z,10092
2017-09-15T11:51:22.114Z,7020
2017-09-15T11:52:32.260Z,5892
2017-09-15T11:53:42.262Z,5480
2017-09-15T11:54:52.735Z,5536
2017-09-15T11:56:03.459Z,5968
2017-09-15T11:57:13.988Z,6552
2017-09-15T11:58:24.531Z,7384
2017-09-15T11:59:34.718Z,7280
2017-09-15T12:00:45.157Z,6848
2017-09-15T12:01:55.881Z,6612
2017-09-15T12:03:06.343Z,5728
2017-09-15T12:04:16.783Z,5684
2017-09-15T12:05:27.248Z,6112
2017-09-15T12:06:37.729Z,7104
2017-09-15T12:07:48.183Z,8612
2017-09-15T12:08:58.621Z,10596
2017-09-15T12:10:09.284Z,12752
2017-09-15T12:11:19.761Z,15168
2017-09-15T12:12:30.265Z,21472
2017-09-15T12:13:41.034Z,41760
2017-09-15T12:14:51.568Z,23072
2017-09-15T12:16:02.009Z,13532
2017-09-15T12:17:12.483Z,11688
2017-09-15T12:18:23.005Z,10616
2017-09-15T12:19:33.695Z,9276
2017-09-15T12:20:44.148Z,8256
2017-09-15T12:21:54.598Z,7260
2017-09-15T12:23:05.107Z,6420
2017-09-15T12:24:15.248Z,5876
2017-09-15T12:25:26.629Z,5580
2017-09-15T12:26:37.118Z,5332
2017-09-15T12:27:47.565Z,5092
2017-09-15T12:28:58.014Z,5064
2017-09-15T12:30:08.493Z,5036
2017-09-15T12:31:19.187Z,5120
2017-09-15T12:32:29.623Z,5128
2017-09-15T12:33:40.092Z,5328
2017-09-15T12:34:50.579Z,5580
2017-09-15T12:36:00.648Z,6040
2017-09-15T12:37:11.353Z,6600
2017-09-15T12:38:21.823Z,6820
2017-09-15T12:39:32.282Z,6244
2017-09-15T12:40:42.407Z,5956
2017-09-15T12:41:52.841Z,5588
2017-09-15T12:43:04.574Z,5240
2017-09-15T12:44:15.011Z,4856
2017-09-15T12:45:25.464Z,4196
2017-09-15T12:46:35.914Z,3736
2017-09-15T12:47:46.410Z,3488
2017-09-15T12:48:57.096Z,3364
2017-09-15T12:50:07.227Z,3420
2017-09-15T12:51:17.898Z,3556
2017-09-15T12:52:28.455Z,3784
2017-09-15T12:53:38.583Z,4016
2017-09-15T12:54:49.285Z,4192
2017-09-15T12:55:59.727Z,4476
2017-09-15T12:57:10.171Z,4788
2017-09-15T12:58:20.676Z,5136
2017-09-15T12:59:31.463Z,4992
2017-09-15T13:00:41.845Z,4524
2017-09-15T13:01:52.380Z,4444
2017-09-15T13:03:03.149Z,4720
2017-09-15T13:04:13.602Z,4984
2017-09-15T13:05:24.058Z,5200
2017-09-15T13:06:34.784Z,5328
2017-09-15T13:07:45.332Z,5392
2017-09-15T13:08:55.501Z,5572
2017-09-15T13:10:05.937Z,5652
2017-09-15T13:11:15.974Z,5680
2017-09-15T13:12:26.695Z,5940
2017-09-15T13:13:37.145Z,6356
2017-09-15T13:14:47.351Z,6604
2017-09-15T13:15:57.822Z,6600
2017-09-15T13:17:08.262Z,6416
2017-09-15T13:18:18.649Z,5936
2017-09-15T13:19:29.169Z,5788
2017-09-15T13:20:39.707Z,5624
2017-09-15T13:21:50.163Z,5616
2017-09-15T13:23:00.685Z,5664
2017-09-15T13:24:11.458Z,5416
2017-09-15T13:25:21.922Z,5060
2017-09-15T13:26:32.358Z,4704
2017-09-15T13:27:43.023Z,4372
2017-09-15T13:28:53.583Z,4052
2017-09-15T13:30:04.428Z,3668
2017-09-15T13:31:14.905Z,3460
2017-09-15T13:32:25.349Z,3404
2017-09-15T13:33:35.824Z,3604
2017-09-15T13:34:46.418Z,3988
2017-09-15T13:35:57.217Z,4428
2017-09-15T13:37:07.892Z,4584
2017-09-15T13:38:18.579Z,4696
2017-09-15T13:39:29.038Z,5260
2017-09-15T13:40:39.467Z,6220
2017-09-15T13:41:50.173Z,6964
2017-09-15T13:43:00.712Z,7112
2017-09-15T13:44:11.155Z,6736
2017-09-15T13:45:21.285Z,7208
2017-09-15T13:46:31.570Z,7208
2017-09-15T13:47:42.275Z,7444
2017-09-15T13:48:52.737Z,7384
2017-09-15T13:50:02.938Z,7104
2017-09-15T13:51:13.438Z,6736
2017-09-15T13:52:23.947Z,6852
2017-09-15T13:53:34.733Z,10604
2017-09-15T13:54:45.223Z,8800
2017-09-15T13:55:55.748Z,9480
2017-09-15T13:57:06.229Z,9648
2017-09-15T13:58:16.389Z,10488
2017-09-15T13:59:26.656Z,11068
2017-09-15T14:00:37.205Z,13524
2017-09-15T14:01:47.670Z,12436
2017-09-15T14:02:58.105Z,11856
2017-09-15T14:04:08.635Z,11016
2017-09-15T14:05:19.387Z,10084
2017-09-15T14:06:29.611Z,9260
2017-09-15T14:07:39.808Z,8644
2017-09-15T14:08:49.942Z,8200
2017-09-15T14:10:00.374Z,8140
2017-09-15T14:11:11.070Z,8884
2017-09-15T14:12:21.608Z,9024
2017-09-15T14:13:32.085Z,9072
2017-09-15T14:14:42.575Z,8820
2017-09-15T14:15:52.453Z,8984
2017-09-15T14:17:03.148Z,9424
2017-09-15T14:18:13.621Z,9620
2017-09-15T14:19:24.085Z,9696
2017-09-15T14:20:34.748Z,9864
2017-09-15T14:21:45.198Z,10144
2017-09-15T14:22:56.057Z,10536
2017-09-15T14:24:06.510Z,10840
2017-09-15T14:25:16.872Z,11012
2017-09-15T14:26:27.455Z,11044
2017-09-15T14:27:37.609Z,11084
2017-09-15T14:28:48.344Z,11380
2017-09-15T14:29:58.468Z,12212
2017-09-15T14:31:08.602Z,15392
2017-09-15T14:32:19.054Z,17152
2017-09-15T14:33:29.567Z,16608
2017-09-15T14:34:40.343Z,16640
2017-09-15T14:35:50.781Z,16640
2017-09-15T14:37:01.355Z,16032
2017-09-15T14:38:11.888Z,15584
2017-09-15T14:39:22.349Z,16128
2017-09-15T14:40:33.053Z,15936
2017-09-15T14:41:43.243Z,17184
2017-09-15T14:42:53.717Z,26880
2017-09-15T14:44:04.226Z,29792
2017-09-15T14:45:14.859Z,31040
2017-09-15T14:46:25.337Z,27104
2017-09-15T14:47:35.815Z,12792
2017-09-15T14:48:46.274Z,12624
2017-09-15T14:49:56.345Z,12808
2017-09-15T14:51:06.920Z,15680
2017-09-15T14:52:17.677Z,12868
2017-09-15T14:53:28.161Z,12824
2017-09-15T14:54:38.650Z,10752
2017-09-15T14:55:48.826Z,10020
2017-09-15T14:56:59.299Z,9408
2017-09-15T14:58:10.067Z,9004
2017-09-15T14:59:20.569Z,9100
2017-09-15T15:00:31.031Z,8532
2017-09-15T15:01:41.542Z,8676
2017-09-15T15:02:51.906Z,9196
2017-09-15T15:04:02.630Z,9516
2017-09-15T15:05:13.099Z,10108
2017-09-15T15:06:23.626Z,9852
2017-09-15T15:07:34.282Z,10568
2017-09-15T15:08:44.734Z,14912
2017-09-15T15:09:54.673Z,10744
2017-09-15T15:11:05.134Z,10176
2017-09-15T15:12:15.618Z,10168
2017-09-15T15:13:26.101Z,10424
2017-09-15T15:14:36.704Z,10256
2017-09-15T15:15:47.446Z,9276
2017-09-15T15:16:57.964Z,8420
2017-09-15T15:18:08.458Z,7932
2017-09-15T15:19:18.462Z,7516
2017-09-15T15:20:28.957Z,7252
2017-09-15T15:21:39.807Z,7080
2017-09-15T15:22:50.325Z,6792
2017-09-15T15:24:00.790Z,6540
2017-09-15T15:25:11.302Z,6248
2017-09-15T15:26:21.776Z,6024
2017-09-15T15:27:32.139Z,5872
2017-09-15T15:28:42.316Z,5736
2017-09-15T15:29:52.768Z,5668
2017-09-15T15:31:02.927Z,5676
2017-09-15T15:32:13.536Z,5776
2017-09-15T15:33:24.262Z,5948
2017-09-15T15:34:34.848Z,5948
2017-09-15T15:35:45.425Z,5848
2017-09-15T15:36:55.891Z,5752
2017-09-15T15:38:06.505Z,5640
2017-09-15T15:39:17.203Z,5504
2017-09-15T15:40:27.290Z,5484
2017-09-15T15:41:37.777Z,5556
2017-09-15T15:42:48.279Z,5708
2017-09-15T15:43:58.742Z,5908
2017-09-15T15:45:08.899Z,6124
2017-09-15T15:46:19.442Z,6416
2017-09-15T15:47:29.663Z,6784
2017-09-15T15:48:40.126Z,12576
2017-09-15T15:49:50.519Z,17728
2017-09-15T15:51:01.300Z,15712
2017-09-15T15:52:11.751Z,25536
2017-09-15T15:53:22.244Z,25408
2017-09-15T15:54:32.728Z,23040
2017-09-15T15:55:43.205Z,14720
2017-09-15T15:56:53.914Z,8012